Time;durP1;ratioP1;P1;durP2;ratioP2;P2;SDS_P1;SDS_P2;PMS_P1;PMS_P2;Temp;Humidity;BMP_temperature;BMP_pressure;BME280_temperature;BME280_humidity;BME280_pressure;Samples;Min_cycle;Max_cycle;Signal;HPM_P1;HPM_P2
2022/11/11 00:00:30;;;;;;;15.17;6.90;;;12.40;99.90;;;;;;5015597;28;20763;-77
2022/11/11 00:02:57;;;;;;;15.93;6.63;;;12.40;99.90;;;;;;5015837;28;20338;-76
2022/11/11 00:05:24;;;;;;;11.50;6.23;;;12.40;99.90;;;;;;5015852;28;20273;-77
2022/11/11 00:07:58;;;;;;;16.07;7.30;;;12.40;99.90;;;;;;5015822;28;20772;-76
2022/11/11 00:10:28;;;;;;;16.27;7.07;;;12.40;99.90;;;;;;5015176;28;20348;-77
2022/11/11 00:13:01;;;;;;;16.93;6.77;;;12.40;99.90;;;;;;5015147;28;20363;-76
2022/11/11 00:15:28;;;;;;;17.40;7.00;;;12.40;99.90;;;;;;5015674;28;20602;-77
2022/11/11 00:26:11;;;;;;;14.03;6.20;;;12.40;99.90;;;;;;5014578;28;20065;-76
2022/11/11 00:28:37;;;;;;;15.27;6.17;;;12.40;99.90;;;;;;5015435;28;20338;-76
2022/11/11 00:31:11;;;;;;;13.40;6.30;;;12.40;99.90;;;;;;5015444;28;20735;-76
2022/11/11 00:33:37;;;;;;;12.30;6.00;;;12.40;99.90;;;;;;5014436;28;20045;-76
2022/11/11 00:36:05;;;;;;;13.37;6.10;;;12.40;99.90;;;;;;5015214;28;20048;-76
2022/11/11 00:38:45;;;;;;;15.33;6.43;;;12.40;99.90;;;;;;5014109;28;20280;-76
2022/11/11 00:41:17;;;;;;;15.60;6.93;;;12.40;99.90;;;;;;5014834;28;20757;-76
2022/11/11 00:43:44;;;;;;;13.87;5.83;;;12.50;99.90;;;;;;5014564;28;20292;-76
2022/11/11 00:51:39;;;;;;;17.00;6.00;;;12.50;99.90;;;;;;5015102;28;20054;-76
2022/11/11 00:54:05;;;;;;;13.00;6.40;;;12.50;99.90;;;;;;5014096;28;20343;-76
2022/11/11 00:56:31;;;;;;;15.47;5.90;;;12.50;99.90;;;;;;5013870;28;20792;-76
2022/11/11 00:58:57;;;;;;;17.90;5.93;;;12.50;99.90;;;;;;5014971;28;20296;-76
2022/11/11 01:01:23;;;;;;;14.80;6.13;;;12.50;99.90;;;;;;4998105;28;20431;-76
2022/11/11 01:03:49;;;;;;;14.53;5.90;;;12.50;99.90;;;;;;5013840;28;20420;-76
2022/11/11 01:06:15;;;;;;;15.03;5.97;;;12.50;99.90;;;;;;5013612;28;20120;-77
2022/11/11 01:08:41;;;;;;;14.57;6.00;;;12.50;99.90;;;;;;4997269;28;20125;-76
2022/11/11 01:11:15;;;;;;;17.03;5.57;;;12.50;99.90;;;;;;5014727;28;20061;-76
2022/11/11 01:13:41;;;;;;;15.53;5.77;;;12.50;99.90;;;;;;5014333;28;20280;-76
2022/11/11 01:16:10;;;;;;;18.83;5.50;;;12.50;99.90;;;;;;5012941;28;20293;-76
2022/11/11 01:18:36;;;;;;;16.23;5.97;;;12.50;99.90;;;;;;5014373;28;20291;-77
2022/11/11 01:21:12;;;;;;;18.20;5.70;;;12.60;99.90;;;;;;4997019;28;20284;-76
2022/11/11 01:23:39;;;;;;;17.53;5.40;;;12.60;99.90;;;;;;4997465;28;20054;-77
2022/11/11 01:26:26;;;;;;;15.47;5.57;;;12.60;99.90;;;;;;5014207;28;20761;-77
2022/11/11 01:28:54;;;;;;;14.73;5.60;;;12.60;99.90;;;;;;5014453;28;20277;-77
2022/11/11 01:31:22;;;;;;;17.27;6.47;;;12.60;99.90;;;;;;4997020;28;20434;-76
2022/11/11 01:33:48;;;;;;;16.23;5.70;;;12.60;99.90;;;;;;5014130;28;20288;-77
2022/11/11 01:36:15;;;;;;;16.33;6.37;;;12.60;99.90;;;;;;5014514;28;20303;-76
2022/11/11 01:38:43;;;;;;;17.23;6.40;;;12.60;99.90;;;;;;5013234;28;20052;-77
2022/11/11 01:41:33;;;;;;;14.97;5.80;;;12.60;99.90;;;;;;5013184;28;20288;-77
2022/11/11 01:44:01;;;;;;;10.83;5.77;;;12.60;99.90;;;;;;4997692;28;20293;-76
2022/11/11 01:46:38;;;;;;;18.40;6.70;;;12.60;99.90;;;;;;5012981;28;20368;-76
2022/11/11 01:49:31;;;;;;;15.33;6.63;;;12.60;99.90;;;;;;5014137;28;20352;-77
2022/11/11 01:52:09;;;;;;;13.13;6.10;;;12.60;99.90;;;;;;4996973;28;20344;-76
2022/11/11 01:54:50;;;;;;;16.23;6.50;;;12.60;99.90;;;;;;5012870;28;20285;-76
2022/11/11 01:57:27;;;;;;;16.43;6.27;;;12.50;99.90;;;;;;4996274;28;20638;-76
2022/11/11 02:00:00;;;;;;;15.20;6.70;;;12.50;99.90;;;;;;5014252;28;20313;-77
2022/11/11 02:02:39;;;;;;;13.23;6.70;;;12.50;99.90;;;;;;5014637;28;20273;-77
2022/11/11 02:07:56;;;;;;;13.60;7.40;;;12.50;99.90;;;;;;5013243;28;20324;-77
2022/11/11 02:10:24;;;;;;;15.17;8.00;;;12.50;99.90;;;;;;5013910;28;20281;-76
2022/11/11 02:15:35;;;;;;;16.30;7.80;;;12.50;99.90;;;;;;5013192;28;20353;-76
2022/11/11 02:18:01;;;;;;;14.80;7.80;;;12.50;99.90;;;;;;5013716;28;20308;-76
2022/11/11 02:20:29;;;;;;;21.57;9.77;;;12.50;99.90;;;;;;5012592;28;20330;-77
2022/11/11 02:23:25;;;;;;;19.27;9.77;;;12.50;99.90;;;;;;5012580;28;20049;-77
2022/11/11 02:25:53;;;;;;;17.97;9.37;;;12.40;99.90;;;;;;5012564;28;20281;-76
2022/11/11 02:28:19;;;;;;;21.40;10.40;;;12.40;99.90;;;;;;5017111;28;20053;-76
2022/11/11 02:30:45;;;;;;;21.10;9.63;;;12.40;99.90;;;;;;5017674;28;20320;-77
2022/11/11 02:33:11;;;;;;;17.43;9.87;;;12.40;99.90;;;;;;5017656;28;20316;-76
2022/11/11 02:35:53;;;;;;;17.50;10.13;;;12.40;99.90;;;;;;5017610;28;20046;-77
2022/11/11 02:38:19;;;;;;;19.37;10.40;;;12.30;99.90;;;;;;5017359;28;20061;-76
2022/11/11 02:43:31;;;;;;;17.83;11.10;;;12.30;99.90;;;;;;5016191;28;20053;-77
2022/11/11 02:45:57;;;;;;;20.40;11.97;;;12.20;99.90;;;;;;5017416;28;20330;-78
2022/11/11 02:48:23;;;;;;;16.93;11.40;;;12.20;99.90;;;;;;5017366;28;20284;-77
2022/11/11 02:50:49;;;;;;;19.57;13.50;;;12.20;99.90;;;;;;5017807;28;20287;-77
2022/11/11 02:53:15;;;;;;;21.97;11.90;;;12.20;99.90;;;;;;5017005;28;20359;-76
2022/11/11 02:55:41;;;;;;;21.10;12.90;;;12.20;99.90;;;;;;5032664;28;20426;-76
2022/11/11 02:58:07;;;;;;;19.93;13.47;;;12.10;99.90;;;;;;5015873;28;20054;-77
2022/11/11 03:00:33;;;;;;;19.37;12.60;;;12.10;99.90;;;;;;5015605;28;20843;-77
2022/11/11 03:02:59;;;;;;;32.63;14.77;;;12.10;99.90;;;;;;5016078;28;20428;-76
2022/11/11 03:05:25;;;;;;;22.53;14.53;;;12.10;99.90;;;;;;5017027;28;20049;-76
2022/11/11 03:07:50;;;;;;;21.57;15.00;;;12.10;99.90;;;;;;5000043;28;20042;-77
2022/11/11 03:10:16;;;;;;;26.17;14.97;;;12.10;99.90;;;;;;5016500;28;20074;-77
2022/11/11 03:12:42;;;;;;;20.50;13.87;;;12.10;99.90;;;;;;5015972;28;20054;-76
2022/11/11 03:15:08;;;;;;;21.63;14.40;;;12.00;99.90;;;;;;5015698;28;20068;-77
2022/11/11 03:17:40;;;;;;;23.50;16.23;;;12.00;99.90;;;;;;5015578;28;20092;-76
2022/11/11 03:23:07;;;;;;;22.13;16.40;;;12.10;99.90;;;;;;5016630;28;20277;-76
2022/11/11 03:25:37;;;;;;;24.57;17.33;;;12.00;99.90;;;;;;5015673;28;20830;-76
2022/11/11 03:28:17;;;;;;;29.43;16.57;;;12.00;99.90;;;;;;5016485;28;20360;-77
2022/11/11 03:30:45;;;;;;;24.93;17.10;;;12.00;99.90;;;;;;5016186;28;20293;-76
2022/11/11 03:33:11;;;;;;;25.93;16.63;;;12.00;99.90;;;;;;5016553;28;20283;-77
2022/11/11 03:35:38;;;;;;;25.63;15.97;;;12.00;99.90;;;;;;5015770;28;20307;-76
2022/11/11 03:38:14;;;;;;;21.63;16.10;;;12.00;99.90;;;;;;5014789;28;20379;-77
2022/11/11 03:40:45;;;;;;;24.73;15.70;;;12.00;99.90;;;;;;5016281;28;20364;-76
2022/11/11 03:43:13;;;;;;;26.10;17.13;;;12.00;99.90;;;;;;5016660;28;20800;-77
2022/11/11 03:45:38;;;;;;;23.30;16.03;;;12.00;99.90;;;;;;5015343;28;20336;-77
2022/11/11 03:48:05;;;;;;;22.00;15.97;;;12.00;99.90;;;;;;5015083;28;20277;-76
2022/11/11 03:50:31;;;;;;;25.73;17.23;;;12.00;99.90;;;;;;5016253;28;20054;-76
2022/11/11 03:52:56;;;;;;;23.37;16.10;;;12.00;99.90;;;;;;5015013;28;20819;-77
2022/11/11 03:55:22;;;;;;;23.43;16.53;;;12.00;99.90;;;;;;5016467;28;20045;-77
2022/11/11 03:57:48;;;;;;;28.60;17.33;;;12.00;99.90;;;;;;5015967;28;20141;-76
2022/11/11 04:00:16;;;;;;;27.43;18.70;;;12.00;99.90;;;;;;4999486;28;20046;-77
2022/11/11 04:10:59;;;;;;;25.20;18.60;;;11.90;99.90;;;;;;5014881;28;20299;-79
2022/11/11 04:16:10;;;;;;;;;;;11.90;99.90;;;;;;5014785;28;20292;-77
2022/11/11 04:26:54;;;;;;;25.20;18.45;;;11.90;99.90;;;;;;5014860;28;20054;-77
2022/11/11 04:29:29;;;;;;;24.80;18.00;;;11.90;99.90;;;;;;5015466;28;20129;-77
2022/11/11 04:34:41;;;;;;;21.93;17.73;;;11.90;99.90;;;;;;5028680;28;19921;-77
2022/11/11 04:37:07;;;;;;;28.50;18.20;;;11.90;99.90;;;;;;5016087;28;20652;-77
2022/11/11 04:42:17;;;;;;;25.23;18.40;;;11.80;99.90;;;;;;5000690;28;20289;-77
2022/11/11 04:47:27;;;;;;;26.40;19.10;;;11.90;99.90;;;;;;5000065;28;20049;-76
2022/11/11 04:49:52;;;;;;;31.13;19.47;;;11.80;99.90;;;;;;5013597;28;20291;-76
2022/11/11 04:52:27;;;;;;;24.47;19.73;;;11.80;99.90;;;;;;5015068;28;20133;-76
2022/11/11 04:57:44;;;;;;;25.33;18.87;;;11.90;99.90;;;;;;5013694;28;20061;-77
2022/11/11 05:00:14;;;;;;;30.50;19.93;;;11.80;99.90;;;;;;5014857;28;20288;-77
2022/11/11 05:05:25;;;;;;;25.92;20.25;;;11.80;99.90;;;;;;5014161;28;20289;-77
2022/11/11 05:10:36;;;;;;;31.13;20.10;;;11.70;99.90;;;;;;5000267;28;20340;-77
2022/11/11 05:21:29;;;;;;;26.30;19.67;;;11.60;99.90;;;;;;5014272;28;20761;-76
2022/11/11 05:26:39;;;;;;;29.30;19.33;;;11.50;99.90;;;;;;5015034;28;20269;-77
2022/11/11 05:29:05;;;;;;;25.10;18.53;;;11.50;99.90;;;;;;5014401;28;20291;-77
2022/11/11 05:31:30;;;;;;;25.03;19.00;;;11.40;99.90;;;;;;4997027;28;20040;-77
2022/11/11 05:33:56;;;;;;;24.80;18.10;;;11.40;99.90;;;;;;5013117;28;20470;-77
2022/11/11 05:36:23;;;;;;;25.63;19.20;;;11.40;99.90;;;;;;5012989;28;20049;-77
2022/11/11 05:38:48;;;;;;;28.43;19.37;;;11.40;99.90;;;;;;5014253;28;20132;-77
2022/11/11 05:41:14;;;;;;;26.20;18.30;;;11.40;99.90;;;;;;5013928;28;20729;-77
2022/11/11 05:43:40;;;;;;;24.67;18.73;;;11.40;99.90;;;;;;4996938;28;20050;-77
2022/11/11 05:46:05;;;;;;;25.37;18.63;;;11.40;99.90;;;;;;5013047;28;20492;-77
2022/11/11 05:48:31;;;;;;;31.33;18.77;;;11.40;99.90;;;;;;5012989;28;20055;-77
2022/11/11 05:50:58;;;;;;;27.37;18.93;;;11.50;99.90;;;;;;5012629;28;20494;-77
2022/11/11 05:53:24;;;;;;;25.37;19.30;;;11.50;99.90;;;;;;5014099;28;20280;-77
2022/11/11 05:55:50;;;;;;;26.20;18.10;;;11.50;99.90;;;;;;5012936;28;20269;-77
2022/11/11 05:58:19;;;;;;;25.70;17.90;;;11.60;99.90;;;;;;5012538;28;20104;-77
2022/11/11 06:00:45;;;;;;;28.00;19.07;;;11.60;99.90;;;;;;4997434;28;20622;-77
2022/11/11 06:03:11;;;;;;;32.50;19.70;;;11.60;99.90;;;;;;5013937;28;20285;-77
2022/11/11 06:05:37;;;;;;;26.20;19.57;;;11.60;99.90;;;;;;5014481;28;20046;-77
2022/11/11 06:08:03;;;;;;;26.07;19.53;;;11.70;99.90;;;;;;4996412;28;20081;-77
2022/11/11 06:10:29;;;;;;;29.30;18.67;;;11.70;99.90;;;;;;5012673;28;20748;-77
2022/11/11 06:13:08;;;;;;;26.10;17.13;;;11.70;99.90;;;;;;5013138;28;20289;-77
2022/11/11 06:15:35;;;;;;;25.53;17.67;;;11.70;99.90;;;;;;4998369;28;20545;-77
2022/11/11 06:18:02;;;;;;;25.07;17.50;;;11.70;99.90;;;;;;5014278;28;20296;-77
2022/11/11 06:20:29;;;;;;;31.17;18.80;;;11.70;99.90;;;;;;5012817;28;20285;-77
2022/11/11 06:22:55;;;;;;;31.67;18.87;;;11.80;99.90;;;;;;5013754;28;20292;-77
2022/11/11 06:28:06;;;;;;;;;;;11.80;99.90;;;;;;5000335;28;20372;-77
2022/11/11 06:30:32;;;;;;;28.20;17.73;;;11.80;99.90;;;;;;5013700;28;20011;-77
2022/11/11 06:32:57;;;;;;;25.67;18.93;;;11.80;99.90;;;;;;5012971;28;20104;-77
2022/11/11 06:35:23;;;;;;;28.67;19.10;;;11.80;99.90;;;;;;5013644;28;20053;-78
2022/11/11 06:37:49;;;;;;;28.00;18.13;;;11.80;99.90;;;;;;4979870;28;20049;-78
2022/11/11 06:40:14;;;;;;;26.53;20.23;;;11.80;99.90;;;;;;5013581;28;20050;-77
2022/11/11 06:42:40;;;;;;;26.47;19.13;;;11.80;99.90;;;;;;5014378;28;20050;-77
2022/11/11 06:45:06;;;;;;;27.33;19.27;;;11.80;99.90;;;;;;4996178;28;20049;-77
2022/11/11 06:47:32;;;;;;;29.73;20.30;;;11.80;99.90;;;;;;5012368;28;20111;-78
2022/11/11 06:49:58;;;;;;;28.20;20.93;;;11.80;99.90;;;;;;5013496;28;20836;-77
2022/11/11 06:52:23;;;;;;;26.67;20.67;;;11.70;99.90;;;;;;4995945;28;20092;-77
2022/11/11 06:54:49;;;;;;;27.40;20.30;;;11.80;99.90;;;;;;5013719;28;20046;-77
2022/11/11 06:57:15;;;;;;;28.60;20.60;;;11.80;99.90;;;;;;5013340;28;20050;-77
2022/11/11 06:59:40;;;;;;;31.47;20.93;;;11.80;99.90;;;;;;5014026;28;20455;-77
2022/11/11 07:02:12;;;;;;;27.97;20.77;;;11.80;99.90;;;;;;5012207;28;20059;-77
2022/11/11 07:04:38;;;;;;;27.47;20.50;;;11.80;99.90;;;;;;5012253;28;20049;-77
2022/11/11 07:07:04;;;;;;;26.80;21.13;;;11.70;99.90;;;;;;5012137;28;20281;-78
2022/11/11 07:09:29;;;;;;;30.50;19.97;;;11.70;99.90;;;;;;4995925;28;20493;-77
2022/11/11 07:11:55;;;;;;;27.03;20.77;;;11.80;99.90;;;;;;5013214;28;20042;-77
2022/11/11 07:14:21;;;;;;;29.60;21.63;;;11.70;99.90;;;;;;5015251;28;20089;-80
2022/11/11 07:16:46;;;;;;;28.70;20.93;;;11.70;99.90;;;;;;5017372;28;20046;-77
2022/11/11 07:19:12;;;;;;;29.33;20.07;;;11.80;99.90;;;;;;5000256;28;20042;-77
2022/11/11 07:21:38;;;;;;;29.93;21.23;;;11.70;99.90;;;;;;5015655;28;20212;-77
2022/11/11 07:24:03;;;;;;;29.07;22.40;;;11.70;99.90;;;;;;5016755;28;20441;-77
2022/11/11 07:26:29;;;;;;;27.77;20.33;;;11.70;99.90;;;;;;5015563;28;20052;-77
2022/11/11 07:28:55;;;;;;;32.30;21.67;;;11.80;99.90;;;;;;5015575;28;20100;-77
2022/11/11 07:31:20;;;;;;;28.50;21.10;;;11.70;99.90;;;;;;5015519;28;20458;-77
2022/11/11 07:33:46;;;;;;;29.57;21.13;;;11.70;99.90;;;;;;4999158;28;20397;-77
2022/11/11 07:36:12;;;;;;;30.57;20.90;;;11.80;99.90;;;;;;5017274;28;20386;-77
2022/11/11 07:38:37;;;;;;;29.37;20.40;;;11.80;99.90;;;;;;5015282;28;20045;-77
2022/11/11 07:41:04;;;;;;;27.90;20.27;;;11.70;99.90;;;;;;5015770;28;20532;-77
2022/11/11 07:43:29;;;;;;;25.47;20.93;;;11.80;99.90;;;;;;5015158;28;20052;-77
2022/11/11 07:45:55;;;;;;;30.50;21.90;;;11.80;99.90;;;;;;5016344;28;20281;-77
2022/11/11 07:48:21;;;;;;;26.47;20.87;;;11.80;99.90;;;;;;4998659;28;20057;-76
2022/11/11 07:50:47;;;;;;;24.50;18.97;;;11.70;99.90;;;;;;5016273;28;20296;-77
2022/11/11 07:53:13;;;;;;;27.13;20.50;;;11.80;99.90;;;;;;5016079;28;20054;-77
2022/11/11 07:55:38;;;;;;;29.37;20.03;;;11.80;99.90;;;;;;5016117;28;20498;-77
2022/11/11 07:58:05;;;;;;;27.20;20.33;;;11.80;99.90;;;;;;5014814;28;20107;-76
2022/11/11 08:00:31;;;;;;;26.73;20.07;;;11.80;99.90;;;;;;5015041;28;20129;-77
2022/11/11 08:02:56;;;;;;;24.70;19.73;;;11.80;99.90;;;;;;5015082;28;20367;-76
2022/11/11 08:05:22;;;;;;;27.77;18.53;;;11.80;99.90;;;;;;5015012;28;20092;-78
2022/11/11 08:07:48;;;;;;;26.43;20.07;;;11.80;99.90;;;;;;4998717;28;20050;-76
2022/11/11 08:10:14;;;;;;;26.67;19.17;;;11.80;99.90;;;;;;4999437;28;20050;-78
2022/11/11 08:15:24;;;;;;;26.30;20.33;;;11.80;99.90;;;;;;5015706;28;20081;-76
2022/11/11 08:17:49;;;;;;;29.33;20.17;;;11.80;99.90;;;;;;4982004;28;20339;-77
2022/11/11 08:20:16;;;;;;;25.13;19.63;;;11.80;99.90;;;;;;5032053;28;20058;-73
2022/11/11 08:22:42;;;;;;;27.07;21.33;;;11.80;99.90;;;;;;5015930;28;20064;-78
2022/11/11 08:25:10;;;;;;;26.93;21.03;;;11.80;99.90;;;;;;5013287;28;20761;-76
2022/11/11 08:27:36;;;;;;;24.83;20.17;;;11.80;99.90;;;;;;5015592;28;20137;-77
2022/11/11 08:30:03;;;;;;;27.67;20.70;;;11.80;99.90;;;;;;5015541;28;20606;-77
2022/11/11 08:32:28;;;;;;;26.63;21.37;;;11.70;99.90;;;;;;5015479;28;20308;-77
2022/11/11 08:34:54;;;;;;;26.03;20.97;;;11.80;99.90;;;;;;5014443;28;20776;-77
2022/11/11 08:37:20;;;;;;;27.30;21.40;;;11.80;99.90;;;;;;5015923;28;20057;-77
2022/11/11 08:39:46;;;;;;;31.63;20.10;;;11.80;99.90;;;;;;5015362;28;20482;-77
2022/11/11 08:42:12;;;;;;;25.10;20.60;;;11.80;99.90;;;;;;5015322;28;20046;-77
2022/11/11 08:44:37;;;;;;;29.77;22.43;;;11.80;99.90;;;;;;5015353;28;20073;-76
2022/11/11 08:47:03;;;;;;;29.10;21.60;;;11.80;99.90;;;;;;5014225;28;20517;-77
2022/11/11 08:49:31;;;;;;;30.57;21.63;;;11.80;99.90;;;;;;5015175;28;20057;-77
2022/11/11 08:51:57;;;;;;;30.43;21.87;;;11.80;99.90;;;;;;5015136;28;20108;-79
2022/11/11 08:54:22;;;;;;;28.67;20.30;;;11.80;99.90;;;;;;5013885;28;20280;-77
2022/11/11 08:56:48;;;;;;;29.13;22.70;;;11.80;99.90;;;;;;5014686;28;20060;-77
2022/11/11 08:59:14;;;;;;;31.97;22.90;;;11.80;99.90;;;;;;5015316;28;20116;-78
2022/11/11 09:01:40;;;;;;;25.97;22.30;;;11.80;99.90;;;;;;5014264;28;20052;-78
2022/11/11 09:04:06;;;;;;;29.93;22.70;;;11.80;99.90;;;;;;4997681;28;20049;-77
2022/11/11 09:06:31;;;;;;;25.80;21.57;;;11.80;99.90;;;;;;5013902;28;20292;-79
2022/11/11 09:08:57;;;;;;;28.90;23.20;;;11.80;99.90;;;;;;5014096;28;20046;-80
2022/11/11 09:11:23;;;;;;;28.80;22.40;;;11.70;99.90;;;;;;5013601;28;20536;-79
2022/11/11 09:13:48;;;;;;;26.87;22.60;;;11.70;99.90;;;;;;5014952;28;20367;-80
2022/11/11 09:16:14;;;;;;;32.63;22.87;;;11.80;99.90;;;;;;5014676;28;20579;-81
2022/11/11 09:18:40;;;;;;;30.70;23.53;;;11.70;99.90;;;;;;5013513;28;20050;-82
2022/11/11 09:21:06;;;;;;;32.93;22.47;;;11.80;99.90;;;;;;5013488;28;20081;-81
2022/11/11 09:23:31;;;;;;;29.67;22.13;;;11.80;99.90;;;;;;5013653;28;20042;-80
2022/11/11 09:26:02;;;;;;;27.77;22.50;;;11.80;99.90;;;;;;5013576;28;20069;-79
2022/11/11 09:28:30;;;;;;;30.80;22.47;;;11.80;99.90;;;;;;5013292;28;20054;-79
2022/11/11 09:31:01;;;;;;;27.60;22.60;;;11.80;99.90;;;;;;5013249;28;20280;-80
2022/11/11 09:33:27;;;;;;;28.20;21.23;;;11.80;99.90;;;;;;5014666;28;20323;-78
2022/11/11 09:35:53;;;;;;;29.40;23.63;;;11.80;99.90;;;;;;5013283;28;20285;-76
2022/11/11 09:38:19;;;;;;;32.27;21.60;;;11.80;99.90;;;;;;5013055;28;20293;-76
2022/11/11 09:41:11;;;;;;;31.30;22.50;;;11.80;99.90;;;;;;5014438;28;20490;-75
2022/11/11 09:43:59;;;;;;;29.00;22.13;;;11.80;99.90;;;;;;5013640;28;20050;-76
2022/11/11 09:46:31;;;;;;;28.43;21.33;;;11.70;99.90;;;;;;5014190;28;20371;-75
2022/11/11 09:48:59;;;;;;;29.10;21.03;;;11.70;99.90;;;;;;5014203;28;20285;-75
2022/11/11 09:51:32;;;;;;;26.80;21.40;;;11.80;99.90;;;;;;5013157;28;20776;-76
2022/11/11 09:54:05;;;;;;;27.67;22.50;;;11.80;99.90;;;;;;5013449;28;20299;-75
2022/11/11 09:56:31;;;;;;;26.90;22.43;;;11.80;99.90;;;;;;5014596;28;20297;-75
2022/11/11 09:59:10;;;;;;;27.83;21.77;;;11.80;99.90;;;;;;5014580;28;20285;-75
2022/11/11 10:01:41;;;;;;;26.93;20.90;;;11.80;99.90;;;;;;5013375;28;20304;-75
2022/11/11 10:04:16;;;;;;;27.83;22.07;;;11.80;99.90;;;;;;5013453;28;20416;-75
2022/11/11 10:06:43;;;;;;;27.95;20.77;;;11.80;99.90;;;;;;5013026;28;20302;-77
2022/11/11 10:09:12;;;;;;;24.13;21.33;;;11.80;99.90;;;;;;5014468;28;20053;-74
2022/11/11 10:11:38;;;;;;;26.03;21.83;;;11.90;99.90;;;;;;5012687;28;20291;-73
2022/11/11 10:14:04;;;;;;;27.80;22.33;;;11.90;99.90;;;;;;5013856;28;20293;-75
2022/11/11 10:16:57;;;;;;;26.40;22.23;;;11.90;99.90;;;;;;5012631;28;20076;-80
2022/11/11 10:19:33;;;;;;;28.00;21.33;;;11.90;99.90;;;;;;5013858;28;20504;-79
2022/11/11 10:22:05;;;;;;;24.37;20.27;;;11.90;99.90;;;;;;5013666;28;20285;-77
2022/11/11 10:24:44;;;;;;;25.40;20.17;;;11.90;99.90;;;;;;5012762;28;20391;-80
2022/11/11 10:27:21;;;;;;;23.50;20.97;;;11.90;99.90;;;;;;5014313;28;20340;-78
2022/11/11 10:29:48;;;;;;;24.87;20.03;;;11.90;99.90;;;;;;5013814;28;20769;-81
2022/11/11 10:32:21;;;;;;;22.93;19.90;;;11.90;99.90;;;;;;5013728;28;20375;-83
2022/11/11 10:34:47;;;;;;;23.70;20.33;;;11.90;99.90;;;;;;5013329;28;20791;-79
2022/11/11 10:37:29;;;;;;;23.07;20.23;;;12.00;99.90;;;;;;5012510;28;20884;-82
2022/11/11 10:40:01;;;;;;;25.20;20.17;;;12.00;99.90;;;;;;5013507;28;20291;-81
2022/11/11 10:42:26;;;;;;;26.00;20.57;;;12.00;99.90;;;;;;5013633;28;20288;-82
2022/11/11 10:44:58;;;;;;;26.27;20.93;;;12.00;99.90;;;;;;5012932;28;20288;-80
2022/11/11 10:47:30;;;;;;;24.20;19.90;;;12.00;99.90;;;;;;5013179;28;20475;-79
2022/11/11 10:50:26;;;;;;;22.07;18.90;;;12.00;99.90;;;;;;5017673;28;20285;-81
2022/11/11 10:53:24;;;;;;;26.30;19.67;;;12.00;99.90;;;;;;5013395;28;20304;-79
2022/11/11 10:56:01;;;;;;;22.33;19.40;;;12.00;99.90;;;;;;5012898;28;20794;-79
2022/11/11 10:58:51;;;;;;;22.83;19.97;;;12.00;99.90;;;;;;4999316;28;20304;-78
2022/11/11 11:01:28;;;;;;;23.27;19.50;;;12.00;99.90;;;;;;5016665;28;20280;-81
2022/11/11 11:04:35;;;;;;;23.53;18.90;;;12.00;99.90;;;;;;5017045;28;20292;-78
2022/11/11 11:07:04;;;;;;;21.90;19.10;;;12.00;99.90;;;;;;4995198;28;20290;-82
2022/11/11 11:09:38;;;;;;;23.97;18.50;;;12.00;99.90;;;;;;5014514;28;20285;-81
2022/11/11 11:12:12;;;;;;;23.67;19.92;;;12.00;99.90;;;;;;5016043;28;20327;-78
2022/11/11 11:14:43;;;;;;;23.30;18.13;;;12.00;99.90;;;;;;5017541;28;20085;-82
2022/11/11 11:17:22;;;;;;;23.57;18.40;;;12.00;99.90;;;;;;5016140;28;20304;-81
2022/11/11 11:20:19;;;;;;;28.37;19.90;;;12.00;99.90;;;;;;5016939;28;20812;-84
2022/11/11 11:22:57;;;;;;;21.10;18.73;;;12.00;99.90;;;;;;5012174;28;20289;-82
2022/11/11 11:25:24;;;;;;;20.60;17.80;;;12.00;99.90;;;;;;5016838;28;20288;-78
2022/11/11 11:27:52;;;;;;;22.53;19.53;;;12.00;99.90;;;;;;5016645;28;20320;-78
2022/11/11 11:30:21;;;;;;;20.70;18.43;;;12.00;99.90;;;;;;5016385;28;20756;-79
2022/11/11 11:32:58;;;;;;;21.03;17.97;;;12.00;99.90;;;;;;5015647;28;20300;-79
2022/11/11 11:35:43;;;;;;;22.43;19.27;;;12.00;99.90;;;;;;5016452;28;20605;-76
2022/11/11 11:38:11;;;;;;;22.52;19.50;;;12.00;99.90;;;;;;5016520;28;20332;-76
2022/11/11 11:40:52;;;;;;;21.00;18.70;;;12.00;99.90;;;;;;5016534;28;20052;-83
2022/11/11 11:43:24;;;;;;;24.33;18.67;;;12.00;99.90;;;;;;4999151;28;20284;-80
2022/11/11 11:46:00;;;;;;;22.47;18.67;;;12.00;99.90;;;;;;5015133;28;20359;-81
2022/11/11 11:48:38;;;;;;;23.47;18.33;;;12.00;99.90;;;;;;5017155;28;20685;-81
2022/11/11 11:51:22;;;;;;;21.47;18.60;;;12.00;99.90;;;;;;5016316;28;20281;-82
2022/11/11 11:54:03;;;;;;;19.27;17.23;;;12.00;99.90;;;;;;5016281;28;20629;-81
2022/11/11 11:56:45;;;;;;;23.60;18.03;;;12.00;99.90;;;;;;5016000;28;20288;-81
2022/11/11 11:59:26;;;;;;;22.90;18.07;;;12.00;99.90;;;;;;5015586;28;20293;-77
2022/11/11 12:02:10;;;;;;;25.20;19.23;;;12.00;99.90;;;;;;5015425;28;20297;-80
2022/11/11 12:04:54;;;;;;;22.00;18.60;;;12.00;99.90;;;;;;5015080;28;20800;-80
2022/11/11 12:07:25;;;;;;;23.30;18.37;;;12.00;99.90;;;;;;5015821;28;20312;-76
2022/11/11 12:10:00;;;;;;;24.20;18.40;;;12.00;99.90;;;;;;5014993;28;20390;-82
2022/11/11 12:12:43;;;;;;;21.80;19.45;;;12.00;99.90;;;;;;5014751;28;20339;-77
2022/11/11 12:15:20;;;;;;;23.17;18.60;;;12.00;99.90;;;;;;5015179;28;20058;-80
2022/11/11 12:17:58;;;;;;;25.83;20.40;;;12.00;99.90;;;;;;5015721;28;20297;-80
2022/11/11 12:20:30;;;;;;;24.43;19.67;;;12.00;99.90;;;;;;5015614;28;20292;-82
2022/11/11 12:23:29;;;;;;;25.93;19.87;;;11.90;99.90;;;;;;5015891;28;20768;-80
2022/11/11 12:26:01;;;;;;;21.57;19.27;;;12.00;99.90;;;;;;5014895;28;20293;-86
2022/11/11 12:28:54;;;;;;;24.53;20.53;;;12.00;99.90;;;;;;5014522;28;20273;-84
2022/11/11 12:31:35;;;;;;;23.67;18.73;;;12.00;99.90;;;;;;5014774;28;20676;-84
2022/11/11 12:34:26;;;;;;;21.97;19.57;;;12.00;99.90;;;;;;5015313;28;20292;-85
2022/11/11 12:36:57;;;;;;;23.47;19.27;;;11.90;99.90;;;;;;5014545;28;20301;-82
2022/11/11 12:39:50;;;;;;;26.50;20.67;;;11.90;99.90;;;;;;5015842;28;20281;-83
2022/11/11 12:42:45;;;;;;;23.00;20.50;;;11.90;99.90;;;;;;5015107;28;20609;-83
2022/11/11 12:45:20;;;;;;;26.10;21.40;;;11.90;99.90;;;;;;5015132;28;20591;-78
2022/11/11 12:47:51;;;;;;;24.90;19.92;;;11.90;99.90;;;;;;5015073;28;20426;-77
2022/11/11 12:50:32;;;;;;;24.60;20.57;;;11.90;99.90;;;;;;4998089;28;20084;-79
2022/11/11 12:52:58;;;;;;;28.17;21.63;;;11.90;99.90;;;;;;5014971;28;20863;-79
2022/11/11 12:55:32;;;;;;;29.27;22.00;;;11.90;99.90;;;;;;5015018;28;20371;-78
2022/11/11 12:58:04;;;;;;;28.27;21.40;;;11.90;99.90;;;;;;5013945;28;20046;-77
2022/11/11 13:00:31;;;;;;;26.43;20.90;;;11.90;99.90;;;;;;5014318;28;20297;-78
2022/11/11 13:03:09;;;;;;;24.40;21.60;;;11.90;99.90;;;;;;5014591;28;20773;-76
2022/11/11 13:05:49;;;;;;;25.93;21.47;;;11.90;99.90;;;;;;5014802;28;20304;-76
2022/11/11 13:08:36;;;;;;;26.50;21.73;;;11.90;99.90;;;;;;5015304;28;20336;-77
2022/11/11 13:11:20;;;;;;;30.87;24.93;;;11.90;99.90;;;;;;5013386;28;20847;-76
2022/11/11 13:13:51;;;;;;;25.87;22.13;;;11.90;99.90;;;;;;5013830;28;20335;-76
2022/11/11 13:16:22;;;;;;;25.83;19.67;;;11.90;99.90;;;;;;5013855;28;20822;-80
2022/11/11 13:19:01;;;;;;;23.07;19.03;;;11.90;99.90;;;;;;5014287;28;20783;-81
2022/11/11 13:21:58;;;;;;;25.73;20.63;;;11.90;99.90;;;;;;5014687;28;20319;-78
2022/11/11 13:24:24;;;;;;;26.80;20.10;;;12.00;99.90;;;;;;5013924;28;20303;-80
2022/11/11 13:26:58;;;;;;;25.53;19.30;;;11.90;99.90;;;;;;5013564;28;20299;-82
2022/11/11 13:30:00;;;;;;;24.17;20.40;;;12.00;99.90;;;;;;5014019;28;20292;-78
2022/11/11 13:32:49;;;;;;;25.17;18.87;;;12.00;99.90;;;;;;5014998;28;20280;-74
2022/11/11 13:35:35;;;;;;;29.73;20.93;;;12.00;99.90;;;;;;5014227;28;20281;-78
2022/11/11 13:38:01;;;;;;;23.93;19.07;;;12.00;99.90;;;;;;5013958;28;20914;-79
2022/11/11 13:40:36;;;;;;;23.03;20.57;;;12.00;99.90;;;;;;5012828;28;20287;-76
2022/11/11 13:43:02;;;;;;;25.53;20.23;;;12.00;99.90;;;;;;5014330;28;20367;-79
2022/11/11 13:45:34;;;;;;;23.63;18.50;;;12.00;99.90;;;;;;5013990;28;20292;-77
2022/11/11 13:48:01;;;;;;;26.63;21.20;;;12.00;99.90;;;;;;5014097;28;20273;-76
2022/11/11 13:50:35;;;;;;;25.47;20.37;;;12.00;99.90;;;;;;5013929;28;20277;-76
2022/11/11 13:53:06;;;;;;;26.07;20.60;;;12.10;99.90;;;;;;5014965;28;20641;-77
2022/11/11 13:55:37;;;;;;;25.37;19.97;;;12.10;99.90;;;;;;5012582;28;20289;-75
2022/11/11 13:58:04;;;;;;;29.27;21.47;;;12.10;99.90;;;;;;5012847;28;20312;-77
2022/11/11 14:00:35;;;;;;;22.83;18.80;;;12.10;99.90;;;;;;5013300;28;20363;-76
2022/11/11 14:03:16;;;;;;;24.73;19.17;;;12.00;99.90;;;;;;5013098;28;20606;-76